Terminal Aerodrome Forecast
Issued by NWS

Home | Current Version | Previous Version | Graphics & Text | Print | Product List | Glossary On
Versions: 1 2 3 4 5 6 7 8 9 10 11 12 13 14 15 16 17
000
FTUS43 KOAX 170520
TAFCDR
TAF
KCDR 170520Z 1706/1806 03005KT P6SM VCSH OVC050
     FM171400 05012G18KT 6SM -SHRA OVC015
     FM171900 06010KT 2SM +RA OVC015
     FM180100 06007KT 6SM -SHRA SCT015 OVC050=

USA.gov is the U.S. government's official web portal to all federal, state and local government web resources and services.